sensor_id;sensor_type;location;lat;lon;timestamp;pressure;altitude;pressure_sealevel;temperature;humidity
3250;BME280;1637;42.020;23.992;2023-04-08T00:00:43;92857.66;;;2.28;93.36
3250;BME280;1637;42.020;23.992;2023-04-08T00:03:10;92857.78;;;2.35;93.50
3250;BME280;1637;42.020;23.992;2023-04-08T00:05:37;92857.31;;;2.68;91.40
3250;BME280;1637;42.020;23.992;2023-04-08T00:08:04;92855.16;;;2.55;90.60
3250;BME280;1637;42.020;23.992;2023-04-08T00:10:31;92846.00;;;2.49;90.05
3250;BME280;1637;42.020;23.992;2023-04-08T00:12:59;92853.50;;;2.47;90.78
3250;BME280;1637;42.020;23.992;2023-04-08T00:15:26;92852.31;;;2.44;90.17
3250;BME280;1637;42.020;23.992;2023-04-08T00:17:53;92848.81;;;2.40;90.41
3250;BME280;1637;42.020;23.992;2023-04-08T00:20:21;92849.91;;;2.00;92.63
3250;BME280;1637;42.020;23.992;2023-04-08T00:22:48;92846.97;;;1.86;94.54
3250;BME280;1637;42.020;23.992;2023-04-08T00:25:15;92843.91;;;1.84;95.44
3250;BME280;1637;42.020;23.992;2023-04-08T00:27:41;92849.06;;;1.96;94.72
3250;BME280;1637;42.020;23.992;2023-04-08T00:30:10;92836.00;;;2.03;94.74
3250;BME280;1637;42.020;23.992;2023-04-08T00:32:37;92847.44;;;2.08;93.81
3250;BME280;1637;42.020;23.992;2023-04-08T00:35:04;92850.84;;;2.27;93.13
3250;BME280;1637;42.020;23.992;2023-04-08T00:37:31;92848.41;;;2.19;93.08
3250;BME280;1637;42.020;23.992;2023-04-08T00:39:58;92855.91;;;1.82;94.11
3250;BME280;1637;42.020;23.992;2023-04-08T00:42:25;92841.81;;;1.58;95.89
3250;BME280;1637;42.020;23.992;2023-04-08T00:44:55;92849.66;;;1.55;96.77
3250;BME280;1637;42.020;23.992;2023-04-08T00:47:23;92845.06;;;1.36;98.12
3250;BME280;1637;42.020;23.992;2023-04-08T00:49:50;92851.94;;;1.25;99.04
3250;BME280;1637;42.020;23.992;2023-04-08T00:52:17;92860.56;;;1.53;99.20
3250;BME280;1637;42.020;23.992;2023-04-08T00:54:44;92851.09;;;1.52;98.35
3250;BME280;1637;42.020;23.992;2023-04-08T00:57:11;92851.09;;;1.52;99.28
3250;BME280;1637;42.020;23.992;2023-04-08T00:59:38;92846.94;;;1.51;99.26
3250;BME280;1637;42.020;23.992;2023-04-08T01:02:12;92849.91;;;1.65;99.73
3250;BME280;1637;42.020;23.992;2023-04-08T01:04:46;92852.16;;;1.83;96.80
3250;BME280;1637;42.020;23.992;2023-04-08T01:07:17;92854.03;;;1.82;96.84
3250;BME280;1637;42.020;23.992;2023-04-08T01:09:50;92861.41;;;2.27;94.72
3250;BME280;1637;42.020;23.992;2023-04-08T01:12:23;92859.88;;;1.91;94.97
3250;BME280;1637;42.020;23.992;2023-04-08T01:14:56;92830.31;;;1.51;96.60
3250;BME280;1637;42.020;23.992;2023-04-08T01:17:26;92865.09;;;1.88;96.46
3250;BME280;1637;42.020;23.992;2023-04-08T01:19:55;92864.72;;;2.05;94.94
3250;BME280;1637;42.020;23.992;2023-04-08T01:22:28;92857.66;;;2.28;93.10
3250;BME280;1637;42.020;23.992;2023-04-08T01:25:02;92828.56;;;2.09;93.00
3250;BME280;1637;42.020;23.992;2023-04-08T01:27:33;92862.38;;;2.19;95.51
3250;BME280;1637;42.020;23.992;2023-04-08T01:30:01;92865.84;;;2.04;95.93
3250;BME280;1637;42.020;23.992;2023-04-08T01:32:29;92853.31;;;2.01;96.59
3250;BME280;1637;42.020;23.992;2023-04-08T01:34:58;92863.84;;;2.17;95.57
3250;BME280;1637;42.020;23.992;2023-04-08T01:37:27;92869.16;;;2.01;95.33
3250;BME280;1637;42.020;23.992;2023-04-08T01:39:55;92842.50;;;1.90;94.80
3250;BME280;1637;42.020;23.992;2023-04-08T01:42:23;92859.53;;;2.28;93.21
3250;BME280;1637;42.020;23.992;2023-04-08T01:44:55;92870.03;;;2.24;93.58
3250;BME280;1637;42.020;23.992;2023-04-08T01:47:23;92860.50;;;2.20;93.33
3250;BME280;1637;42.020;23.992;2023-04-08T01:49:51;92879.16;;;2.46;92.76
3250;BME280;1637;42.020;23.992;2023-04-08T01:52:19;92884.13;;;2.13;93.26
3250;BME280;1637;42.020;23.992;2023-04-08T01:54:46;92879.34;;;1.83;95.85
3250;BME280;1637;42.020;23.992;2023-04-08T01:57:18;92878.66;;;1.86;97.93
3250;BME280;1637;42.020;23.992;2023-04-08T01:59:49;92882.47;;;1.89;97.94
3250;BME280;1637;42.020;23.992;2023-04-08T02:02:19;92856.41;;;1.87;96.06
3250;BME280;1637;42.020;23.992;2023-04-08T02:04:46;92895.03;;;2.11;96.09
3250;BME280;1637;42.020;23.992;2023-04-08T02:07:13;92892.47;;;2.15;94.98
3250;BME280;1637;42.020;23.992;2023-04-08T02:09:41;92873.38;;;1.86;97.27
3250;BME280;1637;42.020;23.992;2023-04-08T02:12:07;92891.06;;;2.01;95.87
3250;BME280;1637;42.020;23.992;2023-04-08T02:14:34;92880.38;;;1.79;97.17
3250;BME280;1637;42.020;23.992;2023-04-08T02:17:07;92887.25;;;2.18;96.83
3250;BME280;1637;42.020;23.992;2023-04-08T02:19:41;92884.03;;;2.09;95.26
3250;BME280;1637;42.020;23.992;2023-04-08T02:22:16;92873.78;;;1.88;96.04
3250;BME280;1637;42.020;23.992;2023-04-08T02:24:43;92886.97;;;1.88;97.16
3250;BME280;1637;42.020;23.992;2023-04-08T02:27:11;92883.94;;;1.86;97.29
3250;BME280;1637;42.020;23.992;2023-04-08T02:29:39;92884.25;;;2.00;95.53
3250;BME280;1637;42.020;23.992;2023-04-08T02:32:07;92888.22;;;2.10;95.97
3250;BME280;1637;42.020;23.992;2023-04-08T02:34:39;92881.00;;;1.91;97.27
3250;BME280;1637;42.020;23.992;2023-04-08T02:37:06;92878.72;;;1.90;98.17
3250;BME280;1637;42.020;23.992;2023-04-08T02:39:34;92890.28;;;2.01;96.87
3250;BME280;1637;42.020;23.992;2023-04-08T02:42:01;92870.97;;;1.97;97.87
3250;BME280;1637;42.020;23.992;2023-04-08T02:44:29;92876.84;;;2.25;95.13
3250;BME280;1637;42.020;23.992;2023-04-08T02:46:56;92873.22;;;2.14;95.13
3250;BME280;1637;42.020;23.992;2023-04-08T02:49:23;92880.69;;;2.47;94.98
3250;BME280;1637;42.020;23.992;2023-04-08T02:51:51;92875.53;;;2.35;93.63
3250;BME280;1637;42.020;23.992;2023-04-08T02:54:18;92879.97;;;2.50;93.19
3250;BME280;1637;42.020;23.992;2023-04-08T02:56:45;92884.38;;;2.42;93.70
3250;BME280;1637;42.020;23.992;2023-04-08T02:59:11;92884.81;;;2.64;93.40
3250;BME280;1637;42.020;23.992;2023-04-08T03:01:38;92887.09;;;2.27;94.18
3250;BME280;1637;42.020;23.992;2023-04-08T03:04:06;92887.63;;;2.36;95.39
3250;BME280;1637;42.020;23.992;2023-04-08T03:06:33;92884.69;;;2.22;94.73
3250;BME280;1637;42.020;23.992;2023-04-08T03:09:01;92899.22;;;2.31;94.88
3250;BME280;1637;42.020;23.992;2023-04-08T03:11:30;92898.09;;;2.48;94.79
3250;BME280;1637;42.020;23.992;2023-04-08T03:13:57;92897.75;;;2.15;98.12
3250;BME280;1637;42.020;23.992;2023-04-08T03:16:24;92942.22;;;2.28;98.77
3250;BME280;1637;42.020;23.992;2023-04-08T03:18:51;92895.97;;;2.19;99.02
3250;BME280;1637;42.020;23.992;2023-04-08T03:21:18;92894.28;;;2.30;98.89
3250;BME280;1637;42.020;23.992;2023-04-08T03:23:45;92901.28;;;2.38;97.71
3250;BME280;1637;42.020;23.992;2023-04-08T03:26:13;92897.34;;;2.32;98.17
3250;BME280;1637;42.020;23.992;2023-04-08T03:28:40;92884.44;;;2.27;98.46
3250;BME280;1637;42.020;23.992;2023-04-08T03:31:06;92891.81;;;2.75;95.57
3250;BME280;1637;42.020;23.992;2023-04-08T03:33:33;92897.91;;;2.99;92.72
3250;BME280;1637;42.020;23.992;2023-04-08T03:36:00;92901.81;;;3.05;91.14
3250;BME280;1637;42.020;23.992;2023-04-08T03:38:27;92900.84;;;2.94;92.47
3250;BME280;1637;42.020;23.992;2023-04-08T03:40:54;92897.50;;;2.97;91.92
3250;BME280;1637;42.020;23.992;2023-04-08T03:43:22;92900.03;;;2.90;92.24
3250;BME280;1637;42.020;23.992;2023-04-08T03:45:50;92891.19;;;2.82;92.13
3250;BME280;1637;42.020;23.992;2023-04-08T03:48:16;92895.66;;;2.78;94.02
3250;BME280;1637;42.020;23.992;2023-04-08T03:50:43;92891.34;;;2.70;96.33
3250;BME280;1637;42.020;23.992;2023-04-08T03:53:10;92897.03;;;2.53;98.20
3250;BME280;1637;42.020;23.992;2023-04-08T03:55:37;92880.25;;;2.26;99.39
3250;BME280;1637;42.020;23.992;2023-04-08T03:58:04;92906.13;;;2.36;100.00
3250;BME280;1637;42.020;23.992;2023-04-08T04:00:32;92896.94;;;2.30;100.00
3250;BME280;1637;42.020;23.992;2023-04-08T04:02:59;92896.31;;;2.36;100.00
3250;BME280;1637;42.020;23.992;2023-04-08T04:05:26;92884.03;;;2.44;99.34
3250;BME280;1637;42.020;23.992;2023-04-08T04:07:53;92898.09;;;2.67;99.76
3250;BME280;1637;42.020;23.992;2023-04-08T04:10:20;92899.06;;;2.59;99.08
3250;BME280;1637;42.020;23.992;2023-04-08T04:12:46;92899.53;;;2.84;97.10
3250;BME280;1637;42.020;23.992;2023-04-08T04:15:15;92900.44;;;2.92;95.29
3250;BME280;1637;42.020;23.992;2023-04-08T04:17:43;92908.22;;;3.04;94.54
3250;BME280;1637;42.020;23.992;2023-04-08T04:20:10;92909.06;;;3.08;93.28
3250;BME280;1637;42.020;23.992;2023-04-08T04:22:37;92902.84;;;3.20;92.05
3250;BME280;1637;42.020;23.992;2023-04-08T04:25:05;92907.78;;;3.21;91.96
3250;BME280;1637;42.020;23.992;2023-04-08T04:27:32;92905.00;;;3.14;90.92
3250;BME280;1637;42.020;23.992;2023-04-08T04:29:59;92906.63;;;2.80;93.30
3250;BME280;1637;42.020;23.992;2023-04-08T04:32:26;92907.91;;;2.67;94.94
3250;BME280;1637;42.020;23.992;2023-04-08T04:34:54;92909.00;;;2.85;95.23
3250;BME280;1637;42.020;23.992;2023-04-08T04:37:21;92904.56;;;2.89;94.37
3250;BME280;1637;42.020;23.992;2023-04-08T04:39:48;92911.00;;;2.72;95.41
3250;BME280;1637;42.020;23.992;2023-04-08T04:42:15;92914.34;;;3.08;100.00
3250;BME280;1637;42.020;23.992;2023-04-08T04:44:42;92902.78;;;3.85;94.50
3250;BME280;1637;42.020;23.992;2023-04-08T04:47:09;92915.09;;;3.51;91.22
3250;BME280;1637;42.020;23.992;2023-04-08T04:49:35;92919.06;;;3.18;92.76
3250;BME280;1637;42.020;23.992;2023-04-08T04:52:06;92916.19;;;2.65;94.81
3250;BME280;1637;42.020;23.992;2023-04-08T04:54:32;92908.19;;;2.62;97.51
3250;BME280;1637;42.020;23.992;2023-04-08T04:56:59;92904.97;;;2.72;97.45
3250;BME280;1637;42.020;23.992;2023-04-08T04:59:26;92912.84;;;2.68;97.25
3250;BME280;1637;42.020;23.992;2023-04-08T05:01:53;92911.50;;;2.59;98.22
3250;BME280;1637;42.020;23.992;2023-04-08T05:04:22;92916.19;;;2.65;98.31
3250;BME280;1637;42.020;23.992;2023-04-08T05:06:49;92915.00;;;2.63;98.36
3250;BME280;1637;42.020;23.992;2023-04-08T05:09:17;92916.59;;;2.67;97.24
3250;BME280;1637;42.020;23.992;2023-04-08T05:11:44;92896.25;;;2.52;96.18
3250;BME280;1637;42.020;23.992;2023-04-08T05:14:10;92919.94;;;2.84;95.98
3250;BME280;1637;42.020;23.992;2023-04-08T05:16:37;92925.66;;;2.86;99.93
3250;BME280;1637;42.020;23.992;2023-04-08T05:19:05;92920.44;;;2.70;100.00
3250;BME280;1637;42.020;23.992;2023-04-08T05:21:31;92926.69;;;2.81;100.00
3250;BME280;1637;42.020;23.992;2023-04-08T05:23:58;92931.97;;;2.62;100.00
3250;BME280;1637;42.020;23.992;2023-04-08T05:26:27;92928.84;;;2.75;100.00
3250;BME280;1637;42.020;23.992;2023-04-08T05:28:53;92928.56;;;2.81;100.00
3250;BME280;1637;42.020;23.992;2023-04-08T05:31:20;92936.69;;;2.91;100.00
3250;BME280;1637;42.020;23.992;2023-04-08T05:33:47;92930.16;;;3.04;100.00
3250;BME280;1637;42.020;23.992;2023-04-08T05:36:14;92929.75;;;3.02;99.36
3250;BME280;1637;42.020;23.992;2023-04-08T05:38:41;92929.41;;;3.04;99.18
3250;BME280;1637;42.020;23.992;2023-04-08T05:41:08;92931.59;;;3.21;97.67
3250;BME280;1637;42.020;23.992;2023-04-08T05:43:37;92927.69;;;3.15;98.14
3250;BME280;1637;42.020;23.992;2023-04-08T05:46:07;92931.31;;;3.26;97.92
3250;BME280;1637;42.020;23.992;2023-04-08T05:48:34;92932.25;;;3.37;96.18
3250;BME280;1637;42.020;23.992;2023-04-08T05:51:01;92941.63;;;3.54;94.94
3250;BME280;1637;42.020;23.992;2023-04-08T05:53:28;92946.50;;;3.75;93.94
3250;BME280;1637;42.020;23.992;2023-04-08T05:55:55;92943.81;;;3.94;89.85
3250;BME280;1637;42.020;23.992;2023-04-08T05:58:22;92935.97;;;4.01;91.81
3250;BME280;1637;42.020;23.992;2023-04-08T06:00:50;92932.44;;;4.20;88.71
3250;BME280;1637;42.020;23.992;2023-04-08T06:03:17;92933.25;;;4.51;89.50
3250;BME280;1637;42.020;23.992;2023-04-08T06:05:44;92926.47;;;4.53;88.15
3250;BME280;1637;42.020;23.992;2023-04-08T06:08:11;92928.50;;;4.63;85.11
3250;BME280;1637;42.020;23.992;2023-04-08T06:10:38;92919.81;;;4.96;83.54
3250;BME280;1637;42.020;23.992;2023-04-08T06:13:05;92919.88;;;5.40;81.06
3250;BME280;1637;42.020;23.992;2023-04-08T06:15:31;92920.66;;;5.81;79.19
3250;BME280;1637;42.020;23.992;2023-04-08T06:18:00;92920.47;;;6.04;77.95
3250;BME280;1637;42.020;23.992;2023-04-08T06:20:27;92932.00;;;6.19;75.58
3250;BME280;1637;42.020;23.992;2023-04-08T06:22:54;92930.69;;;6.53;75.59
3250;BME280;1637;42.020;23.992;2023-04-08T06:25:21;92937.66;;;8.09;70.72
3250;BME280;1637;42.020;23.992;2023-04-08T06:27:48;92929.78;;;9.35;62.63
3250;BME280;1637;42.020;23.992;2023-04-08T06:30:15;92931.38;;;10.40;58.37
3250;BME280;1637;42.020;23.992;2023-04-08T06:32:42;92942.13;;;11.83;55.41
3250;BME280;1637;42.020;23.992;2023-04-08T06:35:13;92951.06;;;11.99;53.56
3250;BME280;1637;42.020;23.992;2023-04-08T06:37:40;92938.28;;;11.50;55.31
3250;BME280;1637;42.020;23.992;2023-04-08T06:40:07;92940.84;;;11.60;53.83
3250;BME280;1637;42.020;23.992;2023-04-08T06:42:34;92928.66;;;9.95;58.89
3250;BME280;1637;42.020;23.992;2023-04-08T06:45:03;92927.38;;;10.62;57.16
3250;BME280;1637;42.020;23.992;2023-04-08T06:47:30;92859.06;;;10.43;55.94
3250;BME280;1637;42.020;23.992;2023-04-08T06:49:57;92929.66;;;11.96;53.94
3250;BME280;1637;42.020;23.992;2023-04-08T06:52:25;92922.34;;;13.33;50.35
3250;BME280;1637;42.020;23.992;2023-04-08T06:54:52;92948.53;;;14.57;46.04
3250;BME280;1637;42.020;23.992;2023-04-08T06:57:19;92923.69;;;13.25;48.25
3250;BME280;1637;42.020;23.992;2023-04-08T06:59:46;92930.72;;;12.95;48.81
3250;BME280;1637;42.020;23.992;2023-04-08T07:02:12;92917.75;;;11.97;52.54
3250;BME280;1637;42.020;23.992;2023-04-08T07:04:40;92917.50;;;11.57;52.20
3250;BME280;1637;42.020;23.992;2023-04-08T07:07:07;92918.59;;;11.63;53.36
3250;BME280;1637;42.020;23.992;2023-04-08T07:09:35;92916.69;;;12.64;51.19
3250;BME280;1637;42.020;23.992;2023-04-08T07:12:02;92920.94;;;11.88;52.63
3250;BME280;1637;42.020;23.992;2023-04-08T07:14:29;92926.06;;;12.53;51.88
3250;BME280;1637;42.020;23.992;2023-04-08T07:16:56;92909.88;;;13.43;48.36
3250;BME280;1637;42.020;23.992;2023-04-08T07:19:23;92924.38;;;12.16;50.58
3250;BME280;1637;42.020;23.992;2023-04-08T07:21:49;92931.38;;;12.33;50.38
3250;BME280;1637;42.020;23.992;2023-04-08T07:24:17;92929.63;;;13.13;49.81
3250;BME280;1637;42.020;23.992;2023-04-08T07:26:45;92932.84;;;13.47;49.87
3250;BME280;1637;42.020;23.992;2023-04-08T07:29:12;92927.44;;;14.19;47.72
3250;BME280;1637;42.020;23.992;2023-04-08T07:31:39;92924.34;;;13.68;49.02
3250;BME280;1637;42.020;23.992;2023-04-08T07:34:06;92924.94;;;14.61;47.10
3250;BME280;1637;42.020;23.992;2023-04-08T07:36:32;92922.44;;;14.70;46.54
3250;BME280;1637;42.020;23.992;2023-04-08T07:38:59;92923.50;;;14.89;46.90
3250;BME280;1637;42.020;23.992;2023-04-08T07:41:27;92919.97;;;14.75;46.26
3250;BME280;1637;42.020;23.992;2023-04-08T07:43:55;92916.97;;;15.31;46.25
3250;BME280;1637;42.020;23.992;2023-04-08T07:46:22;92926.94;;;14.89;44.58
3250;BME280;1637;42.020;23.992;2023-04-08T07:48:49;92928.22;;;15.84;42.40
3250;BME280;1637;42.020;23.992;2023-04-08T07:51:16;92929.09;;;15.10;43.93
3250;BME280;1637;42.020;23.992;2023-04-08T07:53:43;92926.16;;;15.05;43.77
3250;BME280;1637;42.020;23.992;2023-04-08T07:56:11;92912.47;;;14.34;46.19
3250;BME280;1637;42.020;23.992;2023-04-08T07:58:38;92904.13;;;13.60;47.96
3250;BME280;1637;42.020;23.992;2023-04-08T08:01:15;92918.84;;;13.92;45.33
3250;BME280;1637;42.020;23.992;2023-04-08T08:03:42;92918.03;;;13.75;46.98
3250;BME280;1637;42.020;23.992;2023-04-08T08:06:10;92920.28;;;13.40;48.53
3250;BME280;1637;42.020;23.992;2023-04-08T08:08:37;92913.63;;;11.89;51.56
3250;BME280;1637;42.020;23.992;2023-04-08T08:11:03;92894.19;;;10.90;52.76
3250;BME280;1637;42.020;23.992;2023-04-08T08:13:31;92903.78;;;11.21;53.39
3250;BME280;1637;42.020;23.992;2023-04-08T08:15:58;92902.75;;;9.81;58.93
3250;BME280;1637;42.020;23.992;2023-04-08T08:18:26;92905.28;;;9.99;59.31
3250;BME280;1637;42.020;23.992;2023-04-08T08:20:53;92905.25;;;10.06;57.22
3250;BME280;1637;42.020;23.992;2023-04-08T08:23:20;92905.22;;;10.13;56.99
3250;BME280;1637;42.020;23.992;2023-04-08T08:25:47;92908.09;;;11.12;54.25
3250;BME280;1637;42.020;23.992;2023-04-08T08:28:14;92906.44;;;10.50;56.30
3250;BME280;1637;42.020;23.992;2023-04-08T08:30:41;92916.69;;;11.60;52.16
3250;BME280;1637;42.020;23.992;2023-04-08T08:33:08;92921.25;;;12.44;48.88
3250;BME280;1637;42.020;23.992;2023-04-08T08:35:36;92922.13;;;13.63;46.51
3250;BME280;1637;42.020;23.992;2023-04-08T08:38:03;92921.22;;;14.22;43.68
3250;BME280;1637;42.020;23.992;2023-04-08T08:40:30;92917.41;;;14.03;45.55
3250;BME280;1637;42.020;23.992;2023-04-08T08:42:57;92918.28;;;13.81;45.14
3250;BME280;1637;42.020;23.992;2023-04-08T08:45:25;92914.91;;;11.81;49.82
3250;BME280;1637;42.020;23.992;2023-04-08T08:47:52;92905.13;;;11.02;50.61
3250;BME280;1637;42.020;23.992;2023-04-08T08:50:19;92919.22;;;12.01;50.82
3250;BME280;1637;42.020;23.992;2023-04-08T08:52:51;92930.00;;;11.98;49.79
3250;BME280;1637;42.020;23.992;2023-04-08T08:55:18;92908.13;;;11.42;51.11
3250;BME280;1637;42.020;23.992;2023-04-08T08:57:45;92902.81;;;11.65;50.54
3250;BME280;1637;42.020;23.992;2023-04-08T09:00:14;92900.47;;;11.98;50.30
3250;BME280;1637;42.020;23.992;2023-04-08T09:02:42;92908.69;;;13.44;47.70
3250;BME280;1637;42.020;23.992;2023-04-08T09:05:08;92900.06;;;13.52;47.73
3250;BME280;1637;42.020;23.992;2023-04-08T09:07:36;92912.06;;;13.67;46.55
3250;BME280;1637;42.020;23.992;2023-04-08T09:10:07;92912.47;;;13.06;47.55
3250;BME280;1637;42.020;23.992;2023-04-08T09:12:35;92908.03;;;12.53;49.11
3250;BME280;1637;42.020;23.992;2023-04-08T09:15:18;92894.75;;;13.09;48.58
3250;BME280;1637;42.020;23.992;2023-04-08T09:17:45;92905.25;;;12.37;50.24
3250;BME280;1637;42.020;23.992;2023-04-08T09:20:12;92899.88;;;12.37;49.57
3250;BME280;1637;42.020;23.992;2023-04-08T09:22:57;92923.13;;;12.90;49.34
3250;BME280;1637;42.020;23.992;2023-04-08T09:25:26;92901.63;;;12.90;50.41
3250;BME280;1637;42.020;23.992;2023-04-08T09:27:54;92898.28;;;12.16;52.04
3250;BME280;1637;42.020;23.992;2023-04-08T09:30:22;92903.75;;;12.09;52.34
3250;BME280;1637;42.020;23.992;2023-04-08T09:32:51;92895.38;;;11.19;55.58
3250;BME280;1637;42.020;23.992;2023-04-08T09:35:18;92896.66;;;11.08;55.61
3250;BME280;1637;42.020;23.992;2023-04-08T09:37:46;92901.84;;;12.33;52.53
3250;BME280;1637;42.020;23.992;2023-04-08T09:40:14;92905.00;;;13.54;48.21
3250;BME280;1637;42.020;23.992;2023-04-08T09:42:45;92907.97;;;12.33;51.92
3250;BME280;1637;42.020;23.992;2023-04-08T09:45:15;92886.72;;;12.66;49.86
3250;BME280;1637;42.020;23.992;2023-04-08T09:47:51;92883.03;;;12.99;47.99
3250;BME280;1637;42.020;23.992;2023-04-08T09:50:25;92898.44;;;13.19;48.54
3250;BME280;1637;42.020;23.992;2023-04-08T09:52:57;92896.28;;;13.50;47.98
3250;BME280;1637;42.020;23.992;2023-04-08T09:55:26;92891.41;;;13.25;49.11
3250;BME280;1637;42.020;23.992;2023-04-08T09:58:00;92897.41;;;12.89;50.20
3250;BME280;1637;42.020;23.992;2023-04-08T10:00:31;92894.16;;;12.78;49.27
3250;BME280;1637;42.020;23.992;2023-04-08T10:03:03;92897.22;;;12.80;49.15
3250;BME280;1637;42.020;23.992;2023-04-08T10:05:34;92886.97;;;13.34;48.26
3250;BME280;1637;42.020;23.992;2023-04-08T10:08:02;92886.84;;;13.94;49.29
3250;BME280;1637;42.020;23.992;2023-04-08T10:10:29;92887.75;;;13.71;47.78
3250;BME280;1637;42.020;23.992;2023-04-08T10:12:58;92853.81;;;13.21;47.87
3250;BME280;1637;42.020;23.992;2023-04-08T10:15:26;92848.97;;;12.93;49.97
3250;BME280;1637;42.020;23.992;2023-04-08T10:17:54;92885.81;;;13.16;49.74
3250;BME280;1637;42.020;23.992;2023-04-08T10:20:42;92879.47;;;13.62;50.08
3250;BME280;1637;42.020;23.992;2023-04-08T10:23:11;92878.94;;;13.87;48.58
3250;BME280;1637;42.020;23.992;2023-04-08T10:25:39;92855.16;;;13.09;49.44
3250;BME280;1637;42.020;23.992;2023-04-08T10:28:26;92885.94;;;13.28;50.10
3250;BME280;1637;42.020;23.992;2023-04-08T10:30:54;92873.66;;;13.07;51.18
3250;BME280;1637;42.020;23.992;2023-04-08T10:33:23;92873.59;;;13.31;51.10
3250;BME280;1637;42.020;23.992;2023-04-08T10:35:53;92869.84;;;12.65;56.99
3250;BME280;1637;42.020;23.992;2023-04-08T10:38:20;92871.19;;;12.30;56.37
3250;BME280;1637;42.020;23.992;2023-04-08T10:40:48;92873.66;;;12.21;56.55
3250;BME280;1637;42.020;23.992;2023-04-08T10:43:15;92874.09;;;11.93;61.00
3250;BME280;1637;42.020;23.992;2023-04-08T10:45:44;92865.09;;;11.80;61.51
3250;BME280;1637;42.020;23.992;2023-04-08T10:48:17;92870.09;;;11.47;62.23
3250;BME280;1637;42.020;23.992;2023-04-08T10:50:51;92863.81;;;11.61;63.33
3250;BME280;1637;42.020;23.992;2023-04-08T10:53:24;92858.91;;;11.56;63.79
3250;BME280;1637;42.020;23.992;2023-04-08T10:55:51;92868.78;;;11.32;63.97
3250;BME280;1637;42.020;23.992;2023-04-08T10:58:18;92873.34;;;11.35;63.46
3250;BME280;1637;42.020;23.992;2023-04-08T11:00:46;92865.50;;;11.48;64.19
3250;BME280;1637;42.020;23.992;2023-04-08T11:03:13;92863.19;;;11.50;63.05
3250;BME280;1637;42.020;23.992;2023-04-08T11:05:41;92860.63;;;11.43;62.48
3250;BME280;1637;42.020;23.992;2023-04-08T11:08:08;92875.47;;;11.47;64.38
3250;BME280;1637;42.020;23.992;2023-04-08T11:10:37;92882.72;;;11.81;62.36
3250;BME280;1637;42.020;23.992;2023-04-08T11:13:08;92873.09;;;12.07;61.36
3250;BME280;1637;42.020;23.992;2023-04-08T11:15:35;92871.88;;;12.11;60.27
3250;BME280;1637;42.020;23.992;2023-04-08T11:18:04;92887.50;;;11.93;61.08
3250;BME280;1637;42.020;23.992;2023-04-08T11:20:31;92868.78;;;12.13;60.78
3250;BME280;1637;42.020;23.992;2023-04-08T11:23:00;92868.09;;;12.09;60.27
3250;BME280;1637;42.020;23.992;2023-04-08T11:25:28;92880.28;;;12.13;60.40
3250;BME280;1637;42.020;23.992;2023-04-08T11:27:55;92865.63;;;11.94;61.38
3250;BME280;1637;42.020;23.992;2023-04-08T11:30:22;92865.88;;;12.03;62.04
3250;BME280;1637;42.020;23.992;2023-04-08T11:32:50;92871.47;;;12.13;60.21
3250;BME280;1637;42.020;23.992;2023-04-08T11:35:19;92866.53;;;12.34;60.84
3250;BME280;1637;42.020;23.992;2023-04-08T11:37:46;92869.34;;;12.04;61.32
3250;BME280;1637;42.020;23.992;2023-04-08T11:40:19;92871.81;;;11.91;62.29
3250;BME280;1637;42.020;23.992;2023-04-08T11:42:48;92849.88;;;11.69;63.49
3250;BME280;1637;42.020;23.992;2023-04-08T11:45:17;92854.84;;;12.21;63.02
3250;BME280;1637;42.020;23.992;2023-04-08T11:47:46;92850.13;;;12.29;61.45
3250;BME280;1637;42.020;23.992;2023-04-08T11:50:22;92851.75;;;12.46;59.34
3250;BME280;1637;42.020;23.992;2023-04-08T11:52:50;92855.00;;;12.57;59.19
3250;BME280;1637;42.020;23.992;2023-04-08T11:55:22;92838.75;;;11.98;62.43
3250;BME280;1637;42.020;23.992;2023-04-08T11:57:49;92845.28;;;12.20;61.26
3250;BME280;1637;42.020;23.992;2023-04-08T12:00:17;92843.50;;;11.60;62.00
3250;BME280;1637;42.020;23.992;2023-04-08T12:02:44;92842.44;;;11.54;62.92
3250;BME280;1637;42.020;23.992;2023-04-08T12:05:12;92844.81;;;11.75;62.64
3250;BME280;1637;42.020;23.992;2023-04-08T12:07:40;92822.69;;;11.94;60.96
3250;BME280;1637;42.020;23.992;2023-04-08T12:10:08;92841.19;;;12.35;60.95
3250;BME280;1637;42.020;23.992;2023-04-08T12:12:35;92761.31;;;11.46;61.40
3250;BME280;1637;42.020;23.992;2023-04-08T12:15:02;92834.28;;;11.88;60.69
3250;BME280;1637;42.020;23.992;2023-04-08T12:17:29;92842.94;;;11.99;61.58
3250;BME280;1637;42.020;23.992;2023-04-08T12:19:56;92836.47;;;11.96;61.40
3250;BME280;1637;42.020;23.992;2023-04-08T12:22:23;92837.13;;;12.04;59.47
3250;BME280;1637;42.020;23.992;2023-04-08T12:24:51;92838.50;;;12.12;58.60
3250;BME280;1637;42.020;23.992;2023-04-08T12:27:18;92826.84;;;11.72;57.13
3250;BME280;1637;42.020;23.992;2023-04-08T12:29:45;92832.16;;;11.76;58.57
3250;BME280;1637;42.020;23.992;2023-04-08T12:32:13;92819.00;;;11.85;57.84
3250;BME280;1637;42.020;23.992;2023-04-08T12:34:40;92837.47;;;11.83;57.30
3250;BME280;1637;42.020;23.992;2023-04-08T12:37:07;92829.44;;;11.52;58.45
3250;BME280;1637;42.020;23.992;2023-04-08T12:39:34;92819.09;;;11.24;58.65
3250;BME280;1637;42.020;23.992;2023-04-08T12:42:02;92811.69;;;11.05;58.45
3250;BME280;1637;42.020;23.992;2023-04-08T12:44:29;92814.72;;;11.07;58.99
3250;BME280;1637;42.020;23.992;2023-04-08T12:46:56;92809.53;;;11.23;58.13
3250;BME280;1637;42.020;23.992;2023-04-08T12:49:23;92810.16;;;11.34;57.69
3250;BME280;1637;42.020;23.992;2023-04-08T12:51:50;92807.47;;;11.34;57.77
3250;BME280;1637;42.020;23.992;2023-04-08T12:54:17;92812.84;;;11.61;57.90
3250;BME280;1637;42.020;23.992;2023-04-08T12:56:44;92809.63;;;11.69;58.04
3250;BME280;1637;42.020;23.992;2023-04-08T12:59:14;92814.59;;;11.71;57.42
3250;BME280;1637;42.020;23.992;2023-04-08T13:01:41;92813.94;;;11.63;58.64
3250;BME280;1637;42.020;23.992;2023-04-08T13:04:08;92797.81;;;11.40;64.31
3250;BME280;1637;42.020;23.992;2023-04-08T13:06:35;92808.91;;;11.42;65.72
3250;BME280;1637;42.020;23.992;2023-04-08T13:09:02;92797.53;;;11.04;66.81
3250;BME280;1637;42.020;23.992;2023-04-08T13:11:29;92797.41;;;11.15;66.83
3250;BME280;1637;42.020;23.992;2023-04-08T13:13:58;92790.31;;;11.01;67.55
3250;BME280;1637;42.020;23.992;2023-04-08T13:16:26;92797.31;;;10.91;67.91
3250;BME280;1637;42.020;23.992;2023-04-08T13:18:53;92797.84;;;10.79;68.72